Time;durP1;ratioP1;P1;durP2;ratioP2;P2;SDS_P1;SDS_P2;PMS_P1;PMS_P2;Temp;Humidity;BMP_temperature;BMP_pressure;BME280_temperature;BME280_humidity;BME280_pressure;Samples;Min_cycle;Max_cycle;Signal;HPM_P1;HPM_P2
2023/08/30 00:01:31;;;;;;;;;;;;;;;;;;4911477;28;122464;-82
2023/08/30 00:03:58;;;;;;;;;;;;;;;;;;4898245;28;94680;-82
2023/08/30 00:06:25;;;;;;;;;;;;;;;;;;4894046;28;121993;-83
2023/08/30 00:08:51;;;;;;;;;;;;;;;;;;4918748;28;92401;-82
2023/08/30 00:11:17;;;;;;;;;;;;;;;;;;4909358;28;123196;-83
2023/08/30 00:13:44;;;;;;;;;;;;;;;;;;4915753;28;106639;-83
2023/08/30 00:16:12;;;;;;;;;;;;;;;;;;4911974;28;93795;-83
2023/08/30 00:18:39;;;;;;;;;;;;;;;;;;4919172;28;122410;-82
2023/08/30 00:21:06;;;;;;;;;;;;;;;;;;4919228;28;107145;-82
2023/08/30 00:23:33;;;;;;;;;;;;;;;;;;4900665;28;121646;-82
2023/08/30 00:25:59;;;;;;;;;;;;;;;;;;4916616;28;120994;-82
2023/08/30 00:28:25;;;;;;;;;;;;;;;;;;4919257;28;111235;-83
2023/08/30 00:30:52;;;;;;;;;;;;;;;;;;4903116;28;94104;-82
2023/08/30 00:33:19;;;;;;;;;;;;;;;;;;4903110;28;94935;-82
2023/08/30 00:35:45;;;;;;;;;;;;;;;;;;4887491;28;93442;-82
2023/08/30 00:38:12;;;;;;;;;;;;;;;;;;4919238;28;121036;-83
2023/08/30 00:40:39;;;;;;;;;;;;;;;;;;4877215;28;123389;-82
2023/08/30 00:43:05;;;;;;;;;;;;;;;;;;4899245;28;123785;-82
2023/08/30 00:45:32;;;;;;;;;;;;;;;;;;4893866;28;106607;-82
2023/08/30 00:47:58;;;;;;;;;;;;;;;;;;4910837;28;120714;-83
2023/08/30 00:50:25;;;;;;;;;;;;;;;;;;4901703;28;115843;-82
2023/08/30 00:52:51;;;;;;;;;;;;;;;;;;4918012;28;114059;-82
2023/08/30 00:55:17;;;;;;;;;;;;;;;;;;4899963;28;122033;-82
2023/08/30 00:57:44;;;;;;;;;;;;;;;;;;4921327;28;92493;-83
2023/08/30 01:00:12;;;;;;;;;;;;;;;;;;4899310;28;93768;-81
2023/08/30 01:02:39;;;;;;;;;;;;;;;;;;4903796;28;92539;-82
2023/08/30 01:05:06;;;;;;;;;;;;;;;;;;4918704;28;113108;-82
2023/08/30 01:07:32;;;;;;;;;;;;;;;;;;4921195;28;93224;-83
2023/08/30 01:09:58;;;;;;;;;;;;;;;;;;4903878;28;96323;-82
2023/08/30 01:12:25;;;;;;;;;;;;;;;;;;4917654;28;121728;-83
2023/08/30 01:14:51;;;;;;;;;;;;;;;;;;4919973;28;100712;-83
2023/08/30 01:17:18;;;;;;;;;;;;;;;;;;4895149;28;118540;-83
2023/08/30 01:19:44;;;;;;;;;;;;;;;;;;4904180;28;94890;-83
2023/08/30 01:22:11;;;;;;;;;;;;;;;;;;4898674;28;92654;-83
2023/08/30 01:24:37;;;;;;;;;;;;;;;;;;4925511;28;121201;-83
2023/08/30 01:27:03;;;;;;;;;;;;;;;;;;4882768;28;122121;-83
2023/08/30 01:29:30;;;;;;;;;;;;;;;;;;4914455;28;122573;-83
2023/08/30 01:31:56;;;;;;;;;;;;;;;;;;4886402;28;119970;-83
2023/08/30 01:34:23;;;;;;;;;;;;;;;;;;4904694;28;92676;-83
2023/08/30 01:36:50;;;;;;;;;;;;;;;;;;4901386;28;94448;-83
2023/08/30 01:39:16;;;;;;;;;;;;;;;;;;4919138;28;122448;-82
2023/08/30 01:41:42;;;;;;;;;;;;;;;;;;4881642;28;123238;-83
2023/08/30 01:44:09;;;;;;;;;;;;;;;;;;4875219;28;119807;-83
2023/08/30 01:46:35;;;;;;;;;;;;;;;;;;4889679;28;94376;-83
2023/08/30 01:49:02;;;;;;;;;;;;;;;;;;4883685;28;121324;-83
2023/08/30 01:51:28;;;;;;;;;;;;;;;;;;4913538;28;121152;-83
2023/08/30 01:53:54;;;;;;;;;;;;;;;;;;4896486;28;118249;-83
2023/08/30 01:56:21;;;;;;;;;;;;;;;;;;4879159;28;93401;-82
2023/08/30 01:58:47;;;;;;;;;;;;;;;;;;4886875;28;122353;-83
2023/08/30 02:01:14;;;;;;;;;;;;;;;;;;4903724;28;112707;-82
2023/08/30 02:03:40;;;;;;;;;;;;;;;;;;4895308;28;114503;-83
2023/08/30 02:06:08;;;;;;;;;;;;;;;;;;4901931;28;93544;-83
2023/08/30 02:08:35;;;;;;;;;;;;;;;;;;4900090;28;94742;-83
2023/08/30 02:11:02;;;;;;;;;;;;;;;;;;4919657;28;98044;-83
2023/08/30 02:13:31;;;;;;;;;;;;;;;;;;4902571;28;94102;-83
2023/08/30 02:15:58;;;;;;;;;;;;;;;;;;4915998;28;121045;-83
2023/08/30 02:18:24;;;;;;;;;;;;;;;;;;4915261;28;92521;-83
2023/08/30 02:20:52;;;;;;;;;;;;;;;;;;4885753;28;93704;-83
2023/08/30 02:23:19;;;;;;;;;;;;;;;;;;4906488;28;92531;-83
2023/08/30 02:25:45;;;;;;;;;;;;;;;;;;4920959;28;92489;-83
2023/08/30 02:28:12;;;;;;;;;;;;;;;;;;4916755;28;94969;-83
2023/08/30 02:30:39;;;;;;;;;;;;;;;;;;4905667;28;121119;-83
2023/08/30 02:33:05;;;;;;;;;;;;;;;;;;4909915;28;92460;-82
2023/08/30 02:35:32;;;;;;;;;;;;;;;;;;4877341;28;121280;-82
2023/08/30 02:37:59;;;;;;;;;;;;;;;;;;4877272;28;117828;-83
2023/08/30 02:40:25;;;;;;;;;;;;;;;;;;4901251;28;124840;-83
2023/08/30 02:42:52;;;;;;;;;;;;;;;;;;4908646;28;92732;-83
2023/08/30 02:45:19;;;;;;;;;;;;;;;;;;4922620;28;92733;-83
2023/08/30 02:47:46;;;;;;;;;;;;;;;;;;4893999;28;123192;-82
2023/08/30 02:50:12;;;;;;;;;;;;;;;;;;4877779;28;106701;-82
2023/08/30 02:52:38;;;;;;;;;;;;;;;;;;4896612;28;104800;-82
2023/08/30 02:55:05;;;;;;;;;;;;;;;;;;4890727;28;95055;-82
2023/08/30 02:57:31;;;;;;;;;;;;;;;;;;4895256;28;93425;-82
2023/08/30 02:59:58;;;;;;;;;;;;;;;;;;4896167;28;94512;-82
2023/08/30 03:02:24;;;;;;;;;;;;;;;;;;4895745;28;92609;-82
2023/08/30 03:04:51;;;;;;;;;;;;;;;;;;4897412;28;95543;-82
2023/08/30 03:07:19;;;;;;;;;;;;;;;;;;4889405;28;94693;-82
2023/08/30 03:09:45;;;;;;;;;;;;;;;;;;4894177;28;117909;-82
2023/08/30 03:12:11;;;;;;;;;;;;;;;;;;4896962;28;119055;-83
2023/08/30 03:14:38;;;;;;;;;;;;;;;;;;4918203;28;92492;-82
2023/08/30 03:17:04;;;;;;;;;;;;;;;;;;4890939;28;95125;-82
2023/08/30 03:19:30;;;;;;;;;;;;;;;;;;4903449;28;97692;-82
2023/08/30 03:22:00;;;;;;;;;;;;;;;;;;4891604;28;94573;-83
2023/08/30 03:24:26;;;;;;;;;;;;;;;;;;4903054;28;121272;-82
2023/08/30 03:26:53;;;;;;;;;;;;;;;;;;4883084;28;122252;-82
2023/08/30 03:29:19;;;;;;;;;;;;;;;;;;4923358;28;99235;-82
2023/08/30 03:31:46;;;;;;;;;;;;;;;;;;4912855;28;92662;-82
2023/08/30 03:34:12;;;;;;;;;;;;;;;;;;4897867;28;117555;-82
2023/08/30 03:36:39;;;;;;;;;;;;;;;;;;4888973;28;122993;-82
2023/08/30 03:39:05;;;;;;;;;;;;;;;;;;4886103;28;117590;-82
2023/08/30 03:41:32;;;;;;;;;;;;;;;;;;4894788;28;94927;-82
2023/08/30 03:43:59;;;;;;;;;;;;;;;;;;4898991;28;94268;-82
2023/08/30 03:46:26;;;;;;;;;;;;;;;;;;4892875;28;122087;-82
2023/08/30 03:48:52;;;;;;;;;;;;;;;;;;4897937;28;122450;-82
2023/08/30 03:51:19;;;;;;;;;;;;;;;;;;4901139;28;92345;-82
2023/08/30 03:53:47;;;;;;;;;;;;;;;;;;4889743;28;94176;-82
2023/08/30 03:56:14;;;;;;;;;;;;;;;;;;4886699;28;105194;-82
2023/08/30 03:58:40;;;;;;;;;;;;;;;;;;4910095;28;119737;-82
2023/08/30 04:01:07;;;;;;;;;;;;;;;;;;4897314;28;103289;-82
2023/08/30 04:03:33;;;;;;;;;;;;;;;;;;4896233;28;124997;-82
2023/08/30 04:06:00;;;;;;;;;;;;;;;;;;4903369;28;106968;-82
2023/08/30 04:08:26;;;;;;;;;;;;;;;;;;4891164;28;124889;-81
2023/08/30 04:10:52;;;;;;;;;;;;;;;;;;4899376;28;125754;-81
2023/08/30 04:13:19;;;;;;;;;;;;;;;;;;4869807;28;94345;-82
2023/08/30 04:15:45;;;;;;;;;;;;;;;;;;4920068;28;103892;-82
2023/08/30 04:18:12;;;;;;;;;;;;;;;;;;4895496;28;123534;-82
2023/08/30 04:20:38;;;;;;;;;;;;;;;;;;4920097;28;122039;-82
2023/08/30 04:23:05;;;;;;;;;;;;;;;;;;4899056;28;92876;-82
2023/08/30 04:25:32;;;;;;;;;;;;;;;;;;4889289;28;120141;-82
2023/08/30 04:27:58;;;;;;;;;;;;;;;;;;4922374;28;93588;-82
2023/08/30 04:30:25;;;;;;;;;;;;;;;;;;4899307;28;94735;-82
2023/08/30 04:32:51;;;;;;;;;;;;;;;;;;4900907;28;121094;-82
2023/08/30 04:35:18;;;;;;;;;;;;;;;;;;4903151;28;107389;-82
2023/08/30 04:37:44;;;;;;;;;;;;;;;;;;4895315;28;106810;-82
2023/08/30 04:40:11;;;;;;;;;;;;;;;;;;4884111;28;95833;-82
2023/08/30 04:42:37;;;;;;;;;;;;;;;;;;4900775;28;102715;-82
2023/08/30 04:45:04;;;;;;;;;;;;;;;;;;4918139;28;92531;-82
2023/08/30 04:47:31;;;;;;;;;;;;;;;;;;4898085;28;93867;-82
2023/08/30 04:49:59;;;;;;;;;;;;;;;;;;4876132;28;94444;-82
2023/08/30 04:52:25;;;;;;;;;;;;;;;;;;4898179;28;106735;-82
2023/08/30 04:54:54;;;;;;;;;;;;;;;;;;4904544;28;98638;-82
2023/08/30 04:57:22;;;;;;;;;;;;;;;;;;4879854;28;93909;-82
2023/08/30 04:59:49;;;;;;;;;;;;;;;;;;4886876;28;96522;-82
2023/08/30 05:02:15;;;;;;;;;;;;;;;;;;4900322;28;92920;-82
2023/08/30 05:04:49;;;;;;;;;;;;;;;;;;4887642;28;95227;-82
2023/08/30 05:07:16;;;;;;;;;;;;;;;;;;4915292;28;119283;-83
2023/08/30 05:09:42;;;;;;;;;;;;;;;;;;4880739;28;121910;-83
2023/08/30 05:12:09;;;;;;;;;;;;;;;;;;4884866;28;121836;-83
2023/08/30 05:14:35;;;;;;;;;;;;;;;;;;4901962;28;103422;-82
2023/08/30 05:17:02;;;;;;;;;;;;;;;;;;4900435;28;123501;-82
2023/08/30 05:19:28;;;;;;;;;;;;;;;;;;4898685;28;101509;-82
2023/08/30 05:21:55;;;;;;;;;;;;;;;;;;4900600;28;94193;-83
2023/08/30 05:24:22;;;;;;;;;;;;;;;;;;4899097;28;120740;-82
2023/08/30 05:26:48;;;;;;;;;;;;;;;;;;4917563;28;121326;-83
2023/08/30 05:29:16;;;;;;;;;;;;;;;;;;4902315;28;92863;-83
2023/08/30 05:31:42;;;;;;;;;;;;;;;;;;4898899;28;121973;-82
2023/08/30 05:34:28;;;;;;;;;;;;;;;;;;4917060;28;92432;-82
2023/08/30 05:37:04;;;;;;;;;;;;;;;;;;4893673;28;95207;-82
2023/08/30 05:39:51;;;;;;;;;;;;;;;;;;4911980;28;92006;-82
2023/08/30 05:42:17;;;;;;;;;;;;;;;;;;4893161;28;110909;-82
2023/08/30 05:44:44;;;;;;;;;;;;;;;;;;4894949;28;122405;-81
2023/08/30 05:47:14;;;;;;;;;;;;;;;;;;4893612;28;95310;-81
2023/08/30 05:49:41;;;;;;;;;;;;;;;;;;4900601;28;93068;-82
2023/08/30 05:52:07;;;;;;;;;;;;;;;;;;4894791;28;120700;-81
2023/08/30 05:54:34;;;;;;;;;;;;;;;;;;4899016;28;94479;-81
2023/08/30 05:57:01;;;;;;;;;;;;;;;;;;4896469;28;94352;-81
2023/08/30 05:59:28;;;;;;;;;;;;;;;;;;4881625;28;94598;-82
2023/08/30 06:01:54;;;;;;;;;;;;;;;;;;4915568;28;122012;-82
2023/08/30 06:04:21;;;;;;;;;;;;;;;;;;4899388;28;92588;-82
2023/08/30 06:06:47;;;;;;;;;;;;;;;;;;4898171;28;121612;-81
2023/08/30 06:09:13;;;;;;;;;;;;;;;;;;4896637;28;104371;-82
2023/08/30 06:11:40;;;;;;;;;;;;;;;;;;4915025;28;124669;-82
2023/08/30 06:14:06;;;;;;;;;;;;;;;;;;4894592;28;123414;-82
2023/08/30 06:16:33;;;;;;;;;;;;;;;;;;4898908;28;100251;-82
2023/08/30 06:18:59;;;;;;;;;;;;;;;;;;4901044;28;120688;-82
2023/08/30 06:21:25;;;;;;;;;;;;;;;;;;4894345;28;118221;-83
2023/08/30 06:23:52;;;;;;;;;;;;;;;;;;4912497;28;111284;-83
2023/08/30 06:26:18;;;;;;;;;;;;;;;;;;4900414;28;120626;-82
2023/08/30 06:28:45;;;;;;;;;;;;;;;;;;4895138;28;124063;-83
2023/08/30 06:31:24;;;;;;;;;;;;;;;;;;4895011;28;93231;-83
2023/08/30 06:33:50;;;;;;;;;;;;;;;;;;4893975;28;94757;-82
2023/08/30 06:36:17;;;;;;;;;;;;;;;;;;4872917;28;124049;-82
2023/08/30 06:38:43;;;;;;;;;;;;;;;;;;4914266;28;92481;-82
2023/08/30 06:41:10;;;;;;;;;;;;;;;;;;4890966;28;121479;-84
2023/08/30 06:43:36;;;;;;;;;;;;;;;;;;4904671;28;93404;-83
2023/08/30 06:46:03;;;;;;;;;;;;;;;;;;4900928;28;99036;-84
2023/08/30 06:48:29;;;;;;;;;;;;;;;;;;4899731;28;120825;-85
2023/08/30 06:50:56;;;;;;;;;;;;;;;;;;4883691;28;92567;-85
2023/08/30 06:53:22;;;;;;;;;;;;;;;;;;4914805;28;100736;-85
2023/08/30 06:55:49;;;;;;;;;;;;;;;;;;4902495;28;121077;-86
2023/08/30 06:58:15;;;;;;;;;;;;;;;;;;4896087;28;122006;-86
2023/08/30 07:00:42;;;;;;;;;;;;;;;;;;4905180;28;104630;-86
2023/08/30 07:03:09;;;;;;;;;;;;;;;;;;4884272;28;123018;-86
2023/08/30 07:05:35;;;;;;;;;;;;;;;;;;4901033;28;122627;-86
2023/08/30 07:08:02;;;;;;;;;;;;;;;;;;4898032;28;117142;-87
2023/08/30 07:10:29;;;;;;;;;;;;;;;;;;4906232;28;121185;-88
2023/08/30 07:12:55;;;;;;;;;;;;;;;;;;4897445;28;121331;-88
2023/08/30 07:15:22;;;;;;;;;;;;;;;;;;4893801;28;95550;-88
2023/08/30 07:17:48;;;;;;;;;;;;;;;;;;4890150;28;98922;-89
2023/08/30 07:20:19;;;;;;;;;;;;;;;;;;4900353;28;92965;-89
2023/08/30 07:22:46;;;;;;;;;;;;;;;;;;4914309;28;94783;-89
2023/08/30 07:25:13;;;;;;;;;;;;;;;;;;4885585;28;123136;-88
2023/08/30 07:27:40;;;;;;;;;;;;;;;;;;4897417;28;96054;-89
2023/08/30 07:30:07;;;;;;;;;;;;;;;;;;4914165;28;107983;-90
2023/08/30 07:32:35;;;;;;;;;;;;;;;;;;4896554;28;93479;-90
2023/08/30 07:35:02;;;;;;;;;;;;;;;;;;4881378;28;92596;-89
2023/08/30 07:37:29;;;;;;;;;;;;;;;;;;4901369;28;94324;-88
2023/08/30 07:39:55;;;;;;;;;;;;;;;;;;4895988;28;93927;-87
2023/08/30 07:42:24;;;;;;;;;;;;;;;;;;4917363;28;121142;-87
2023/08/30 07:44:51;;;;;;;;;;;;;;;;;;4890721;28;106216;-86
2023/08/30 07:47:17;;;;;;;;;;;;;;;;;;4895259;28;125319;-87
2023/08/30 07:49:43;;;;;;;;;;;;;;;;;;4899304;28;124081;-87
2023/08/30 07:52:10;;;;;;;;;;;;;;;;;;4886366;28;121410;-87
2023/08/30 07:54:37;;;;;;;;;;;;;;;;;;4911634;28;122433;-87
2023/08/30 07:57:03;;;;;;;;;;;;;;;;;;4915904;28;92565;-88
2023/08/30 07:59:30;;;;;;;;;;;;;;;;;;4879711;28;121702;-87
2023/08/30 08:01:57;;;;;;;;;;;;;;;;;;4896382;28;117920;-88
2023/08/30 08:04:23;;;;;;;;;;;;;;;;;;4898594;28;94807;-86
2023/08/30 08:06:50;;;;;;;;;;;;;;;;;;4913405;28;123230;-89
2023/08/30 08:09:22;;;;;;;;;;;;;;;;;;4915266;28;102291;-87
2023/08/30 08:11:48;;;;;;;;;;;;;;;;;;4921507;28;95056;-87
2023/08/30 08:14:15;;;;;;;;;;;;;;;;;;4883397;28;94565;-89
2023/08/30 08:16:41;;;;;;;;;;;;;;;;;;4887288;28;93723;-89
2023/08/30 08:19:08;;;;;;;;;;;;;;;;;;4883345;28;120408;-88
2023/08/30 08:21:34;;;;;;;;;;;;;;;;;;4918365;28;92551;-87
2023/08/30 08:24:01;;;;;;;;;;;;;;;;;;4913537;28;122031;-87
2023/08/30 08:26:27;;;;;;;;;;;;;;;;;;4908303;28;92276;-86
2023/08/30 08:28:54;;;;;;;;;;;;;;;;;;4899038;28;123820;-86
2023/08/30 08:31:20;;;;;;;;;;;;;;;;;;4901630;28;123994;-87
2023/08/30 08:33:47;;;;;;;;;;;;;;;;;;4892686;28;117037;-88
2023/08/30 08:36:13;;;;;;;;;;;;;;;;;;4903096;28;95012;-89
2023/08/30 08:38:40;;;;;;;;;;;;;;;;;;4903469;28;93345;-90
2023/08/30 08:41:07;;;;;;;;;;;;;;;;;;4891162;28;123027;-91
2023/08/30 08:43:37;;;;;;;;;;;;;;;;;;4885067;28;93775;-89
2023/08/30 08:46:06;;;;;;;;;;;;;;;;;;4903100;28;92555;-88
2023/08/30 08:48:32;;;;;;;;;;;;;;;;;;4891410;28;105373;-89
2023/08/30 08:50:59;;;;;;;;;;;;;;;;;;4918654;28;98452;-89
2023/08/30 08:53:27;;;;;;;;;;;;;;;;;;4899998;28;119351;-89
2023/08/30 08:55:54;;;;;;;;;;;;;;;;;;4901968;28;99112;-88
2023/08/30 08:58:23;;;;;;;;;;;;;;;;;;4921672;28;99992;-88
2023/08/30 09:00:49;;;;;;;;;;;;;;;;;;4917124;28;98612;-88
2023/08/30 09:03:16;;;;;;;;;;;;;;;;;;4911362;28;129602;-88
2023/08/30 09:05:43;;;;;;;;;;;;;;;;;;4910724;28;127502;-88
2023/08/30 09:08:10;;;;;;;;;;;;;;;;;;4895986;28;119098;-89
2023/08/30 09:10:37;;;;;;;;;;;;;;;;;;4878028;28;100395;-87
2023/08/30 09:13:03;;;;;;;;;;;;;;;;;;4894251;28;98742;-89
2023/08/30 09:15:30;;;;;;;;;;;;;;;;;;4900248;28;98605;-89
2023/08/30 09:17:56;;;;;;;;;;;;;;;;;;4896209;28;128165;-90
2023/08/30 09:20:23;;;;;;;;;;;;;;;;;;4895125;28;99008;-88
2023/08/30 09:22:50;;;;;;;;;;;;;;;;;;4896770;28;98485;-89
2023/08/30 09:25:16;;;;;;;;;;;;;;;;;;4892390;28;127361;-89
2023/08/30 09:27:43;;;;;;;;;;;;;;;;;;4917014;28;98561;-87
2023/08/30 09:30:10;;;;;;;;;;;;;;;;;;4891621;28;129301;-89
2023/08/30 09:32:37;;;;;;;;;;;;;;;;;;4906410;28;123947;-89
2023/08/30 09:35:03;;;;;;;;;;;;;;;;;;4899991;28;120866;-89
2023/08/30 09:37:30;;;;;;;;;;;;;;;;;;4886472;28;100942;-89
2023/08/30 09:39:57;;;;;;;;;;;;;;;;;;4925832;28;99351;-89
2023/08/30 09:42:23;;;;;;;;;;;;;;;;;;4896801;28;100194;-89
2023/08/30 09:44:50;;;;;;;;;;;;;;;;;;4883466;28;124360;-89
2023/08/30 09:47:18;;;;;;;;;;;;;;;;;;4910145;28;106397;-89
2023/08/30 09:49:49;;;;;;;;;;;;;;;;;;4872199;28;126926;-89
2023/08/30 09:52:18;;;;;;;;;;;;;;;;;;4881554;28;107733;-89
2023/08/30 09:54:45;;;;;;;;;;;;;;;;;;4887213;28;124145;-90
2023/08/30 09:57:11;;;;;;;;;;;;;;;;;;4905073;28;98583;-88
2023/08/30 09:59:38;;;;;;;;;;;;;;;;;;4880614;28;128397;-88
2023/08/30 10:02:04;;;;;;;;;;;;;;;;;;4900305;28;128019;-88
2023/08/30 10:04:31;;;;;;;;;;;;;;;;;;4893311;28;100668;-88
2023/08/30 10:06:57;;;;;;;;;;;;;;;;;;4903240;28;97943;-88
2023/08/30 10:09:24;;;;;;;;;;;;;;;;;;4890112;28;127201;-89
2023/08/30 10:11:50;;;;;;;;;;;;;;;;;;4911804;28;98518;-87
2023/08/30 10:14:17;;;;;;;;;;;;;;;;;;4886034;28;122962;-88
2023/08/30 10:16:43;;;;;;;;;;;;;;;;;;4893876;28;117986;-88
2023/08/30 10:19:10;;;;;;;;;;;;;;;;;;4888707;28;126055;-88
2023/08/30 10:21:37;;;;;;;;;;;;;;;;;;4912313;28;98378;-89
2023/08/30 10:24:04;;;;;;;;;;;;;;;;;;4896089;28;104284;-88
2023/08/30 10:26:40;;;;;;;;;;;;;;;;;;4893932;28;98607;-88
2023/08/30 10:29:07;;;;;;;;;;;;;;;;;;4894232;28;123264;-89
2023/08/30 10:31:33;;;;;;;;;;;;;;;;;;4875114;28;108792;-88
2023/08/30 10:34:00;;;;;;;;;;;;;;;;;;4893045;28;98608;-91
2023/08/30 10:36:27;;;;;;;;;;;;;;;;;;4878953;28;105890;-89
2023/08/30 10:38:53;;;;;;;;;;;;;;;;;;4899998;28;128152;-88
2023/08/30 10:41:19;;;;;;;;;;;;;;;;;;4913973;28;120831;-89
2023/08/30 10:43:51;;;;;;;;;;;;;;;;;;4889138;28;127486;-89
2023/08/30 10:46:19;;;;;;;;;;;;;;;;;;4878481;28;98614;-89
2023/08/30 10:48:46;;;;;;;;;;;;;;;;;;4891935;28;99760;-84
2023/08/30 10:51:12;;;;;;;;;;;;;;;;;;4892755;28;129358;-83
2023/08/30 10:53:39;;;;;;;;;;;;;;;;;;4894500;28;122275;-84
2023/08/30 10:56:05;;;;;;;;;;;;;;;;;;4914466;28;111454;-84
2023/08/30 10:58:32;;;;;;;;;;;;;;;;;;4913677;28;127292;-84
2023/08/30 11:00:58;;;;;;;;;;;;;;;;;;4915763;28;120274;-83
2023/08/30 11:03:25;;;;;;;;;;;;;;;;;;4902904;28;108174;-83
2023/08/30 11:05:51;;;;;;;;;;;;;;;;;;4918751;28;102446;-84
2023/08/30 11:08:17;;;;;;;;;;;;;;;;;;4917573;28;126572;-84
2023/08/30 11:10:44;;;;;;;;;;;;;;;;;;4901246;28;131567;-83
2023/08/30 11:13:11;;;;;;;;;;;;;;;;;;4901794;28;121131;-84
2023/08/30 11:15:37;;;;;;;;;;;;;;;;;;4907146;28;100056;-84
2023/08/30 11:18:04;;;;;;;;;;;;;;;;;;4897066;28;111624;-85
2023/08/30 11:20:30;;;;;;;;;;;;;;;;;;4903781;28;104105;-83
2023/08/30 11:22:57;;;;;;;;;;;;;;;;;;4918862;28;126950;-83
2023/08/30 11:25:23;;;;;;;;;;;;;;;;;;4920050;28;128644;-83
2023/08/30 11:27:49;;;;;;;;;;;;;;;;;;4918008;28;111268;-82
2023/08/30 11:30:16;;;;;;;;;;;;;;;;;;4900533;28;127483;-83
2023/08/30 11:32:45;;;;;;;;;;;;;;;;;;4918401;28;101416;-82
2023/08/30 11:35:12;;;;;;;;;;;;;;;;;;4916740;28;126827;-82
2023/08/30 11:37:38;;;;;;;;;;;;;;;;;;4916431;28;127749;-81
2023/08/30 11:40:06;;;;;;;;;;;;;;;;;;4916758;28;122423;-82
2023/08/30 11:42:32;;;;;;;;;;;;;;;;;;4904762;28;125178;-82
2023/08/30 11:44:59;;;;;;;;;;;;;;;;;;4916674;28;126810;-82
2023/08/30 11:47:26;;;;;;;;;;;;;;;;;;4902902;28;105058;-82
2023/08/30 11:49:53;;;;;;;;;;;;;;;;;;4916137;28;127309;-85
2023/08/30 11:52:20;;;;;;;;;;;;;;;;;;4915382;28;99173;-85
2023/08/30 11:54:46;;;;;;;;;;;;;;;;;;4867437;28;114861;-82
2023/08/30 11:57:13;;;;;;;;;;;;;;;;;;4914254;28;127530;-84
2023/08/30 11:59:39;;;;;;;;;;;;;;;;;;4891013;28;123417;-84
2023/08/30 12:02:07;;;;;;;;;;;;;;;;;;4884591;28;102845;-84
2023/08/30 12:04:33;;;;;;;;;;;;;;;;;;4899836;28;128778;-84
2023/08/30 12:07:00;;;;;;;;;;;;;;;;;;4905675;28;122284;-85
2023/08/30 12:09:26;;;;;;;;;;;;;;;;;;4895556;28;129854;-85
2023/08/30 12:11:53;;;;;;;;;;;;;;;;;;4887338;28;120913;-86
2023/08/30 12:14:19;;;;;;;;;;;;;;;;;;4892840;28;129916;-85
2023/08/30 12:16:47;;;;;;;;;;;;;;;;;;4906004;28;128211;-85
2023/08/30 12:19:13;;;;;;;;;;;;;;;;;;4915046;28;109403;-85
2023/08/30 12:21:41;;;;;;;;;;;;;;;;;;4896683;28;110942;-85
2023/08/30 12:24:07;;;;;;;;;;;;;;;;;;4890681;28;109368;-84
2023/08/30 12:26:34;;;;;;;;;;;;;;;;;;4911031;28;122382;-85
2023/08/30 12:29:00;;;;;;;;;;;;;;;;;;4907718;28;100306;-85
2023/08/30 12:31:27;;;;;;;;;;;;;;;;;;4900697;28;118557;-85
2023/08/30 12:33:53;;;;;;;;;;;;;;;;;;4923627;28;124214;-83
2023/08/30 12:36:20;;;;;;;;;;;;;;;;;;4899285;28;126977;-84
2023/08/30 12:38:47;;;;;;;;;;;;;;;;;;4874907;28;97778;-84
2023/08/30 12:41:13;;;;;;;;;;;;;;;;;;4901670;28;98561;-85
2023/08/30 12:43:40;;;;;;;;;;;;;;;;;;4918106;28;114015;-85
2023/08/30 12:46:07;;;;;;;;;;;;;;;;;;4898467;28;98531;-84
2023/08/30 12:48:33;;;;;;;;;;;;;;;;;;4899733;28;126741;-81
2023/08/30 12:50:59;;;;;;;;;;;;;;;;;;4885978;28;129905;-81
2023/08/30 12:53:26;;;;;;;;;;;;;;;;;;4898969;28;128623;-85
2023/08/30 12:55:53;;;;;;;;;;;;;;;;;;4902113;28;102432;-84
2023/08/30 12:58:19;;;;;;;;;;;;;;;;;;4900922;28;121140;-83
2023/08/30 13:00:46;;;;;;;;;;;;;;;;;;4916734;28;123069;-83
2023/08/30 13:03:12;;;;;;;;;;;;;;;;;;4897795;28;120841;-83
2023/08/30 13:05:42;;;;;;;;;;;;;;;;;;4911171;28;112699;-83
2023/08/30 13:08:08;;;;;;;;;;;;;;;;;;4917007;28;119684;-87
2023/08/30 13:10:35;;;;;;;;;;;;;;;;;;4892783;28;129381;-83
2023/08/30 13:13:02;;;;;;;;;;;;;;;;;;4915135;28;101273;-84
2023/08/30 13:15:29;;;;;;;;;;;;;;;;;;4923224;28;98240;-84
2023/08/30 13:17:56;;;;;;;;;;;;;;;;;;4915887;28;121119;-83
2023/08/30 13:20:22;;;;;;;;;;;;;;;;;;4921011;28;116177;-81
2023/08/30 13:22:48;;;;;;;;;;;;;;;;;;4898577;28;127845;-81
2023/08/30 13:25:15;;;;;;;;;;;;;;;;;;4899956;28;98901;-81
2023/08/30 13:27:41;;;;;;;;;;;;;;;;;;4921557;28;103352;-82
2023/08/30 13:30:08;;;;;;;;;;;;;;;;;;4905654;28;128537;-81
2023/08/30 13:32:35;;;;;;;;;;;;;;;;;;4891417;28;121140;-81
2023/08/30 13:35:02;;;;;;;;;;;;;;;;;;4924227;28;104279;-82
2023/08/30 13:37:29;;;;;;;;;;;;;;;;;;4920087;28;104874;-81
2023/08/30 13:39:55;;;;;;;;;;;;;;;;;;4915939;28;126391;-82
2023/08/30 13:42:21;;;;;;;;;;;;;;;;;;4914434;28;107795;-82
2023/08/30 13:44:48;;;;;;;;;;;;;;;;;;4881733;28;106608;-84
2023/08/30 13:47:16;;;;;;;;;;;;;;;;;;4898971;28;122467;-83
2023/08/30 13:49:42;;;;;;;;;;;;;;;;;;4900261;28;98460;-83
2023/08/30 13:52:09;;;;;;;;;;;;;;;;;;4915512;28;121349;-83
2023/08/30 13:54:35;;;;;;;;;;;;;;;;;;4903374;28;126259;-84
2023/08/30 13:57:02;;;;;;;;;;;;;;;;;;4918337;28;128537;-84
2023/08/30 13:59:28;;;;;;;;;;;;;;;;;;4890849;28;107821;-84
2023/08/30 14:01:57;;;;;;;;;;;;;;;;;;4895282;28;129350;-84
2023/08/30 14:04:24;;;;;;;;;;;;;;;;;;4863407;28;122521;-83
2023/08/30 14:06:51;;;;;;;;;;;;;;;;;;4904700;28;128943;-83
2023/08/30 14:09:17;;;;;;;;;;;;;;;;;;4915634;28;103725;-84
2023/08/30 14:11:44;;;;;;;;;;;;;;;;;;4916411;28;121103;-82
2023/08/30 14:14:10;;;;;;;;;;;;;;;;;;4917134;28;109173;-82
2023/08/30 14:16:36;;;;;;;;;;;;;;;;;;4898227;28;107707;-84
2023/08/30 14:19:05;;;;;;;;;;;;;;;;;;4897435;28;107766;-85
2023/08/30 14:21:32;;;;;;;;;;;;;;;;;;4895279;28;108283;-84
2023/08/30 14:23:58;;;;;;;;;;;;;;;;;;4913496;28;122244;-82
2023/08/30 14:26:24;;;;;;;;;;;;;;;;;;4898562;28;123786;-83
2023/08/30 14:28:51;;;;;;;;;;;;;;;;;;4894286;28;127886;-84
2023/08/30 14:31:17;;;;;;;;;;;;;;;;;;4915082;28;122429;-83
2023/08/30 14:33:47;;;;;;;;;;;;;;;;;;4893142;28;126988;-84
2023/08/30 14:36:15;;;;;;;;;;;;;;;;;;4895501;28;126936;-84
2023/08/30 14:38:42;;;;;;;;;;;;;;;;;;4916708;28;100804;-84
2023/08/30 14:41:08;;;;;;;;;;;;;;;;;;4895327;28;99909;-84
2023/08/30 14:43:35;;;;;;;;;;;;;;;;;;4901645;28;99567;-85
2023/08/30 14:46:01;;;;;;;;;;;;;;;;;;4914404;28;127707;-85
2023/08/30 14:48:35;;;;;;;;;;;;;;;;;;4881013;28;131011;-85
2023/08/30 14:51:02;;;;;;;;;;;;;;;;;;4895676;28;112917;-86
2023/08/30 14:53:28;;;;;;;;;;;;;;;;;;4880795;28;126521;-86
2023/08/30 14:55:55;;;;;;;;;;;;;;;;;;4896740;28;126427;-86
2023/08/30 14:58:22;;;;;;;;;;;;;;;;;;4878597;28;120260;-86
2023/08/30 15:00:48;;;;;;;;;;;;;;;;;;4883829;28;101281;-86
2023/08/30 15:03:15;;;;;;;;;;;;;;;;;;4911831;28;105238;-87
2023/08/30 15:05:41;;;;;;;;;;;;;;;;;;4881198;28;124728;-86
2023/08/30 15:08:08;;;;;;;;;;;;;;;;;;4877629;28;130581;-86
2023/08/30 15:10:35;;;;;;;;;;;;;;;;;;4881309;28;98762;-86
2023/08/30 15:13:02;;;;;;;;;;;;;;;;;;4898487;28;98412;-86
2023/08/30 15:15:30;;;;;;;;;;;;;;;;;;4883799;28;100737;-86
2023/08/30 15:17:56;;;;;;;;;;;;;;;;;;4892809;28;121488;-84
2023/08/30 15:20:23;;;;;;;;;;;;;;;;;;4894755;28;130090;-84
2023/08/30 15:22:49;;;;;;;;;;;;;;;;;;4889028;28;115594;-84
2023/08/30 15:25:15;;;;;;;;;;;;;;;;;;4890349;28;111931;-85
2023/08/30 15:27:42;;;;;;;;;;;;;;;;;;4870931;28;125599;-83
2023/08/30 15:30:08;;;;;;;;;;;;;;;;;;4922509;28;98438;-86
2023/08/30 15:32:35;;;;;;;;;;;;;;;;;;4888987;28;99869;-87
2023/08/30 15:35:01;;;;;;;;;;;;;;;;;;4897079;28;117216;-87
2023/08/30 15:37:28;;;;;;;;;;;;;;;;;;4869495;28;124103;-87
2023/08/30 15:39:54;;;;;;;;;;;;;;;;;;4914656;28;123859;-87
2023/08/30 15:42:20;;;;;;;;;;;;;;;;;;4901178;28;99529;-86
2023/08/30 15:44:47;;;;;;;;;;;;;;;;;;4920223;28;121038;-87
2023/08/30 15:47:13;;;;;;;;;;;;;;;;;;4915431;28;127379;-86
2023/08/30 15:49:40;;;;;;;;;;;;;;;;;;4912494;28;108290;-86
2023/08/30 15:52:07;;;;;;;;;;;;;;;;;;4890558;28;126033;-85
2023/08/30 15:54:33;;;;;;;;;;;;;;;;;;4894596;28;129830;-85
2023/08/30 15:57:02;;;;;;;;;;;;;;;;;;4885677;28;121562;-86
2023/08/30 15:59:29;;;;;;;;;;;;;;;;;;4921810;28;107143;-85
2023/08/30 16:01:56;;;;;;;;;;;;;;;;;;4885627;28;100444;-85
2023/08/30 16:04:23;;;;;;;;;;;;;;;;;;4893992;28;123109;-85
2023/08/30 16:06:50;;;;;;;;;;;;;;;;;;4886529;28;127323;-85
2023/08/30 16:09:18;;;;;;;;;;;;;;;;;;4894561;28;122545;-87
2023/08/30 16:11:45;;;;;;;;;;;;;;;;;;4889357;28;129696;-86
2023/08/30 16:14:11;;;;;;;;;;;;;;;;;;4911535;28;122816;-86
2023/08/30 16:16:38;;;;;;;;;;;;;;;;;;4897545;28;121139;-87
2023/08/30 16:19:05;;;;;;;;;;;;;;;;;;4889778;28;98439;-86
2023/08/30 16:21:32;;;;;;;;;;;;;;;;;;4892542;28;129487;-85
2023/08/30 16:23:58;;;;;;;;;;;;;;;;;;4904312;28;123453;-86
2023/08/30 16:26:24;;;;;;;;;;;;;;;;;;4876905;28;128627;-86
2023/08/30 16:28:51;;;;;;;;;;;;;;;;;;4912533;28;126724;-85
2023/08/30 16:31:17;;;;;;;;;;;;;;;;;;4889654;28;99045;-86